createdAt,value
2023-03-10T00:02:32.936Z,15.00
2023-03-10T00:05:21.748Z,15.10
2023-03-10T00:08:10.258Z,15.10
2023-03-10T00:11:00.640Z,15.10
2023-03-10T00:13:49.111Z,14.90
2023-03-10T00:19:26.660Z,14.30
2023-03-10T00:22:15.164Z,14.40
2023-03-10T00:25:04.160Z,14.80
2023-03-10T00:27:53.990Z,14.80
2023-03-10T00:30:42.461Z,14.80
2023-03-10T00:33:32.401Z,14.80
2023-03-10T00:36:22.418Z,14.80
2023-03-10T00:39:12.065Z,14.80
2023-03-10T00:42:01.150Z,14.80
2023-03-10T00:44:51.106Z,14.80
2023-03-10T00:47:39.564Z,14.90
2023-03-10T00:50:28.044Z,14.80
2023-03-10T00:53:16.654Z,14.80
2023-03-10T00:56:08.165Z,14.90
2023-03-10T00:58:58.541Z,14.90
2023-03-10T01:01:48.477Z,14.70
2023-03-10T01:04:36.885Z,14.70
2023-03-10T01:07:25.497Z,14.70
2023-03-10T01:10:14.437Z,14.70
2023-03-10T01:13:02.861Z,14.60
2023-03-10T01:15:51.670Z,14.50
2023-03-10T01:18:43.280Z,14.20
2023-03-10T01:21:34.900Z,13.70
2023-03-10T01:24:23.338Z,13.90
2023-03-10T01:27:11.814Z,13.50
2023-03-10T01:30:00.330Z,13.40
2023-03-10T01:32:48.898Z,13.60
2023-03-10T01:35:39.406Z,13.80
2023-03-10T01:38:28.134Z,13.90
2023-03-10T01:41:17.594Z,13.80
2023-03-10T01:44:06.376Z,13.30
2023-03-10T01:46:56.316Z,13.50
2023-03-10T01:49:46.485Z,13.60
2023-03-10T01:52:37.738Z,13.30
2023-03-10T01:55:31.871Z,13.40
2023-03-10T01:58:24.274Z,13.40
2023-03-10T02:01:14.345Z,13.50
2023-03-10T02:04:07.822Z,13.60
2023-03-10T02:06:57.702Z,13.40
2023-03-10T02:09:50.178Z,13.40
2023-03-10T02:12:38.575Z,13.50
2023-03-10T02:15:27.025Z,13.10
2023-03-10T02:18:17.253Z,13.40
2023-03-10T02:21:12.828Z,13.50
2023-03-10T02:24:07.256Z,13.10
2023-03-10T02:27:02.325Z,13.20
2023-03-10T02:29:59.922Z,13.50
2023-03-10T02:32:51.905Z,13.50
2023-03-10T02:35:40.511Z,13.60
2023-03-10T02:38:28.959Z,13.50
2023-03-10T02:41:22.583Z,13.00
2023-03-10T02:44:14.531Z,12.90
2023-03-10T02:47:04.406Z,12.80
2023-03-10T02:49:52.931Z,13.00
2023-03-10T02:52:46.405Z,13.20
2023-03-10T02:55:34.920Z,12.80
2023-03-10T02:58:24.691Z,13.00
2023-03-10T03:01:13.219Z,13.20
2023-03-10T03:04:03.510Z,13.30
2023-03-10T03:06:51.995Z,13.40
2023-03-10T03:09:40.441Z,13.50
2023-03-10T03:12:28.846Z,13.50
2023-03-10T03:15:17.657Z,13.50
2023-03-10T03:18:06.314Z,13.60
2023-03-10T03:20:56.173Z,13.50
2023-03-10T03:23:46.125Z,13.60
2023-03-10T03:26:34.601Z,13.60
2023-03-10T03:29:23.044Z,13.60
2023-03-10T03:32:11.597Z,13.60
2023-03-10T03:35:00.973Z,13.60
2023-03-10T03:37:50.940Z,13.60
2023-03-10T03:40:39.927Z,13.60
2023-03-10T03:43:29.604Z,13.60
2023-03-10T03:46:18.076Z,13.60
2023-03-10T03:49:06.510Z,13.60
2023-03-10T03:51:55.042Z,13.50
2023-03-10T03:54:44.869Z,13.50
2023-03-10T03:57:33.609Z,13.50
2023-03-10T04:00:25.186Z,13.40
2023-03-10T04:03:13.778Z,13.50
2023-03-10T04:06:02.204Z,13.40
2023-03-10T04:08:51.315Z,13.50
2023-03-10T04:11:41.204Z,13.40
2023-03-10T04:14:29.704Z,13.40
2023-03-10T04:17:18.299Z,13.50
2023-03-10T04:20:08.894Z,13.50
2023-03-10T04:22:57.384Z,13.50
2023-03-10T04:25:45.855Z,13.50
2023-03-10T04:28:36.140Z,13.40
2023-03-10T04:31:24.935Z,13.50
2023-03-10T04:34:13.457Z,13.20
2023-03-10T04:37:01.959Z,13.10
2023-03-10T04:39:50.670Z,12.70
2023-03-10T04:42:39.181Z,12.80
2023-03-10T04:45:29.100Z,12.90
2023-03-10T04:48:17.940Z,13.10
2023-03-10T04:51:08.610Z,13.00
2023-03-10T04:53:57.341Z,12.80
2023-03-10T04:56:46.098Z,12.90
2023-03-10T04:59:34.606Z,12.90
2023-03-10T05:02:24.492Z,12.80
2023-03-10T05:05:13.154Z,12.80
2023-03-10T05:08:01.702Z,12.90
2023-03-10T05:10:50.149Z,13.00
2023-03-10T05:13:38.711Z,13.00
2023-03-10T05:16:27.248Z,12.60
2023-03-10T05:19:17.291Z,12.90
2023-03-10T05:22:07.236Z,12.80
2023-03-10T05:24:55.719Z,12.70
2023-03-10T05:27:44.237Z,12.20
2023-03-10T05:30:32.761Z,12.00
2023-03-10T05:33:21.233Z,11.90
2023-03-10T05:36:14.660Z,11.80
2023-03-10T05:39:03.186Z,11.90
2023-03-10T05:41:51.585Z,12.10
2023-03-10T05:44:40.662Z,12.20
2023-03-10T05:47:29.033Z,12.20
2023-03-10T05:50:18.141Z,12.00
2023-03-10T05:53:07.975Z,11.90
2023-03-10T05:55:58.348Z,12.00
2023-03-10T05:58:47.725Z,12.10
2023-03-10T06:01:36.410Z,11.90
2023-03-10T06:04:25.509Z,12.00
2023-03-10T06:07:13.977Z,12.10
2023-03-10T06:10:03.893Z,12.40
2023-03-10T06:12:52.414Z,12.50
2023-03-10T06:15:40.884Z,12.50
2023-03-10T06:18:30.763Z,12.40
2023-03-10T06:21:19.219Z,12.40
2023-03-10T06:24:07.941Z,12.50
2023-03-10T06:26:57.800Z,12.60
2023-03-10T06:29:48.557Z,12.50
2023-03-10T06:32:37.072Z,12.50
2023-03-10T06:35:25.592Z,12.60
2023-03-10T06:38:14.222Z,12.70
2023-03-10T06:41:02.985Z,12.80
2023-03-10T06:43:52.937Z,12.90
2023-03-10T06:46:41.477Z,13.10
2023-03-10T06:49:30.746Z,13.20
2023-03-10T06:52:19.177Z,13.00
2023-03-10T06:55:08.639Z,12.90
2023-03-10T06:57:57.068Z,12.90
2023-03-10T07:00:47.058Z,13.00
2023-03-10T07:03:36.480Z,12.90
2023-03-10T07:06:25.992Z,12.80
2023-03-10T07:09:14.455Z,13.00
2023-03-10T07:12:03.014Z,13.10
2023-03-10T07:14:51.665Z,13.00
2023-03-10T07:17:41.616Z,13.00
2023-03-10T07:20:30.223Z,13.10
2023-03-10T07:26:09.077Z,13.60
2023-03-10T07:28:57.554Z,13.10
2023-03-10T07:31:46.138Z,13.00
2023-03-10T07:34:36.065Z,13.00
2023-03-10T07:37:24.564Z,13.10
2023-03-10T07:40:13.566Z,13.30
2023-03-10T07:43:02.337Z,13.60
2023-03-10T07:45:50.863Z,13.40
2023-03-10T07:48:39.629Z,13.40
2023-03-10T07:51:29.571Z,13.70
2023-03-10T07:54:18.116Z,13.80
2023-03-10T07:57:06.597Z,13.90
2023-03-10T07:59:55.081Z,14.20
2023-03-10T08:02:43.773Z,14.60
2023-03-10T08:05:33.170Z,14.80
2023-03-10T08:08:23.676Z,14.90
2023-03-10T08:11:12.233Z,15.10
2023-03-10T08:14:00.817Z,15.20
2023-03-10T08:16:49.455Z,15.40
2023-03-10T08:19:39.574Z,15.50
2023-03-10T08:22:28.379Z,15.60
2023-03-10T08:25:18.384Z,15.70
2023-03-10T08:28:06.945Z,15.80
2023-03-10T08:31:04.181Z,15.80
2023-03-10T08:33:56.741Z,15.90
2023-03-10T08:36:45.892Z,16.00
2023-03-10T08:39:34.469Z,16.20
2023-03-10T08:42:24.394Z,16.20
2023-03-10T08:45:13.242Z,16.30
2023-03-10T08:48:01.775Z,16.30
2023-03-10T08:50:51.178Z,16.40
2023-03-10T08:53:40.409Z,16.50
2023-03-10T08:56:29.920Z,16.60
2023-03-10T08:59:19.837Z,16.70
2023-03-10T09:02:08.608Z,16.70
2023-03-10T09:04:57.155Z,16.70
2023-03-10T09:07:45.626Z,16.70
2023-03-10T09:10:34.274Z,16.60
2023-03-10T09:13:22.835Z,16.70
2023-03-10T09:16:13.530Z,16.70
2023-03-10T09:19:02.870Z,16.70
2023-03-10T09:21:51.370Z,16.70
2023-03-10T09:24:39.815Z,16.60
2023-03-10T09:27:28.475Z,16.60
2023-03-10T09:30:17.777Z,16.80
2023-03-10T09:33:10.500Z,17.10
2023-03-10T09:36:06.528Z,17.20
2023-03-10T09:38:55.568Z,17.40
2023-03-10T09:42:09.031Z,17.60
2023-03-10T09:45:09.197Z,17.60
2023-03-10T09:48:11.660Z,17.90
2023-03-10T09:51:03.605Z,18.00
2023-03-10T09:54:02.001Z,18.10
2023-03-10T09:56:50.403Z,18.20
2023-03-10T09:59:42.129Z,18.40
2023-03-10T10:02:34.119Z,18.50
2023-03-10T10:05:31.327Z,18.70
2023-03-10T10:08:26.063Z,18.90
2023-03-10T10:11:18.714Z,19.00
2023-03-10T10:14:28.399Z,19.10
2023-03-10T10:17:26.334Z,18.30
2023-03-10T10:20:21.643Z,19.40
2023-03-10T10:23:19.965Z,19.60
2023-03-10T10:26:13.316Z,19.60
2023-03-10T10:29:07.085Z,19.70
2023-03-10T10:32:09.087Z,19.80
2023-03-10T10:35:15.934Z,19.90
2023-03-10T10:38:06.964Z,20.00
2023-03-10T10:41:05.123Z,19.90
2023-03-10T10:43:58.072Z,20.20
2023-03-10T10:46:53.976Z,20.80
2023-03-10T10:49:42.440Z,20.00
2023-03-10T10:52:30.884Z,20.10
2023-03-10T10:55:28.120Z,19.90
2023-03-10T10:58:30.850Z,20.00
2023-03-10T11:01:19.386Z,20.00
2023-03-10T11:04:14.209Z,19.90
2023-03-10T11:07:12.738Z,19.90
2023-03-10T11:10:01.500Z,20.00
2023-03-10T11:13:00.782Z,19.80
2023-03-10T11:15:57.812Z,19.90
2023-03-10T11:18:52.232Z,20.10
2023-03-10T11:21:45.766Z,20.10
2023-03-10T11:24:39.398Z,20.20
2023-03-10T11:27:40.728Z,20.30
2023-03-10T11:30:33.349Z,20.60
2023-03-10T11:33:29.686Z,20.70
2023-03-10T11:39:21.798Z,20.80
2023-03-10T11:42:17.529Z,20.80
2023-03-10T11:45:25.518Z,20.90
2023-03-10T11:48:46.503Z,21.10
2023-03-10T11:51:40.125Z,21.20
2023-03-10T11:54:34.445Z,21.40
2023-03-10T11:57:25.683Z,21.30
2023-03-10T12:00:23.766Z,21.40
2023-03-10T12:06:12.811Z,21.60
2023-03-10T12:09:04.651Z,21.50
2023-03-10T12:11:53.928Z,21.40
2023-03-10T12:14:44.181Z,21.30
2023-03-10T12:17:32.900Z,21.40
2023-03-10T12:20:29.363Z,21.70
2023-03-10T12:23:41.764Z,21.90
2023-03-10T12:26:59.755Z,22.00
2023-03-10T12:29:48.485Z,22.10
2023-03-10T12:41:45.976Z,22.40
2023-03-10T12:56:40.212Z,22.80
2023-03-10T12:59:36.857Z,22.70
2023-03-10T13:02:33.608Z,22.90
2023-03-10T13:05:26.716Z,23.10
2023-03-10T13:08:21.249Z,23.00
2023-03-10T13:11:30.199Z,22.90
2023-03-10T13:14:21.888Z,23.10
2023-03-10T13:17:22.844Z,23.30
2023-03-10T13:20:17.363Z,22.90
2023-03-10T13:23:07.534Z,22.90
2023-03-10T13:25:57.561Z,23.10
2023-03-10T13:28:52.879Z,23.20
2023-03-10T13:31:41.370Z,23.30
2023-03-10T13:34:32.359Z,23.40
2023-03-10T13:37:20.853Z,23.50
2023-03-10T13:40:16.190Z,23.30
2023-03-10T13:43:05.883Z,23.40
2023-03-10T13:45:56.739Z,23.30
2023-03-10T13:48:46.752Z,23.40
2023-03-10T13:51:36.723Z,23.40
2023-03-10T13:54:27.530Z,23.20
2023-03-10T14:00:13.469Z,23.10
2023-03-10T14:03:02.613Z,23.00
2023-03-10T14:05:51.332Z,23.20
2023-03-10T14:08:39.802Z,23.30
2023-03-10T14:11:35.484Z,22.90
2023-03-10T14:14:30.235Z,22.30
2023-03-10T14:20:28.158Z,22.70
2023-03-10T14:23:34.924Z,22.60
2023-03-10T14:26:23.483Z,22.60
2023-03-10T14:29:16.752Z,22.70
2023-03-10T14:32:07.623Z,22.40
2023-03-10T14:34:56.179Z,22.50
2023-03-10T14:37:46.476Z,22.40
2023-03-10T14:40:40.075Z,22.40
2023-03-10T15:23:03.525Z,21.70
2023-03-10T15:25:52.027Z,21.60
2023-03-10T15:28:41.081Z,21.70
2023-03-10T15:31:29.679Z,21.70
2023-03-10T15:34:19.649Z,21.40
2023-03-10T15:37:09.088Z,21.30
2023-03-10T15:39:59.025Z,21.20
2023-03-10T15:42:48.307Z,21.10
2023-03-10T15:45:41.539Z,21.10
2023-03-10T15:48:29.972Z,21.10
2023-03-10T15:51:18.604Z,21.10
2023-03-10T15:54:07.400Z,20.90
2023-03-10T15:56:57.227Z,20.70
2023-03-10T15:59:45.916Z,20.60
2023-03-10T16:02:34.368Z,20.50
2023-03-10T16:05:23.292Z,20.40
2023-03-10T16:19:29.352Z,21.90
2023-03-10T16:59:04.018Z,19.00
2023-03-10T17:01:52.633Z,19.00
2023-03-10T17:04:42.452Z,18.90
2023-03-10T17:07:31.169Z,18.80
2023-03-10T17:10:19.800Z,18.80
2023-03-10T17:13:08.277Z,18.80
2023-03-10T17:15:56.775Z,18.80
2023-03-10T17:18:45.970Z,18.80
2023-03-10T17:21:39.316Z,18.80
2023-03-10T17:24:27.988Z,18.70
2023-03-10T17:27:16.415Z,18.70
2023-03-10T17:30:05.480Z,18.60
2023-03-10T17:32:54.038Z,18.60
2023-03-10T18:18:02.344Z,17.80
2023-03-10T18:20:51.112Z,17.60
2023-03-10T18:23:39.595Z,17.40
2023-03-10T18:26:30.357Z,17.00
2023-03-10T18:29:20.220Z,16.80
2023-03-10T18:32:08.679Z,17.00
2023-03-10T18:34:59.159Z,17.00
2023-03-10T18:37:47.654Z,16.80
2023-03-10T18:40:36.262Z,16.90
2023-03-10T18:43:25.103Z,17.10
2023-03-10T18:46:15.370Z,17.00
2023-03-10T18:49:03.953Z,16.80
2023-03-10T18:51:52.414Z,16.60
2023-03-10T18:54:40.862Z,16.50
2023-03-10T18:57:29.581Z,16.50
2023-03-10T19:00:19.222Z,16.60
2023-03-10T19:03:10.552Z,16.60
2023-03-10T19:05:59.462Z,16.40
2023-03-10T19:08:47.939Z,16.40
2023-03-10T19:11:37.167Z,16.30
2023-03-10T19:14:25.608Z,16.30
2023-03-10T19:17:14.165Z,16.30
2023-03-10T19:20:05.695Z,16.30
2023-03-10T19:22:54.271Z,16.40
2023-03-10T19:25:43.119Z,16.30
2023-03-10T19:28:31.612Z,16.50
2023-03-10T19:31:20.105Z,16.70
2023-03-10T19:34:08.641Z,16.70
2023-03-10T19:36:58.402Z,16.80
2023-03-10T19:39:46.915Z,17.00
2023-03-10T19:42:35.781Z,16.70
2023-03-10T19:45:24.263Z,16.60
2023-03-10T19:48:12.923Z,16.70
2023-03-10T19:51:01.583Z,16.60
2023-03-10T19:53:52.453Z,16.60
2023-03-10T19:56:40.970Z,16.50
2023-03-10T19:59:29.393Z,16.60
2023-03-10T20:02:19.177Z,16.60
2023-03-10T20:05:08.996Z,16.70
2023-03-10T20:07:57.565Z,16.70
2023-03-10T20:10:47.706Z,16.80
2023-03-10T20:13:36.192Z,16.80
2023-03-10T20:16:27.593Z,16.80
2023-03-10T20:19:16.336Z,16.70
2023-03-10T20:22:04.916Z,16.60
2023-03-10T20:24:53.559Z,16.70
2023-03-10T20:27:43.809Z,16.80
2023-03-10T20:30:32.357Z,17.00
2023-03-10T20:33:21.514Z,17.20
2023-03-10T20:36:13.857Z,17.20
2023-03-10T20:39:02.425Z,17.30
2023-03-10T20:41:51.056Z,17.30
2023-03-10T20:44:41.004Z,17.10
2023-03-10T20:47:30.229Z,18.70
2023-03-10T20:50:19.354Z,16.90
2023-03-10T20:53:07.902Z,16.80
2023-03-10T20:55:56.311Z,16.70
2023-03-10T20:58:44.968Z,16.70
2023-03-10T21:01:39.769Z,16.50
2023-03-10T21:04:28.418Z,16.40
2023-03-10T21:07:16.959Z,16.40
2023-03-10T21:10:07.414Z,16.60
2023-03-10T21:12:56.052Z,16.40
2023-03-10T21:15:44.665Z,16.30
2023-03-10T21:18:34.933Z,16.30
2023-03-10T21:21:23.658Z,16.20
2023-03-10T21:24:13.017Z,16.20
2023-03-10T21:27:01.633Z,16.20
2023-03-10T21:29:50.073Z,16.10
2023-03-10T21:32:39.010Z,16.10
2023-03-10T21:35:34.126Z,16.20
2023-03-10T21:38:22.690Z,16.30
2023-03-10T21:41:13.445Z,16.30
2023-03-10T21:44:03.268Z,16.30
2023-03-10T21:46:51.977Z,16.30
2023-03-10T21:49:40.722Z,16.40
2023-03-10T21:52:30.604Z,16.20
2023-03-10T21:55:22.879Z,16.20
2023-03-10T21:58:11.397Z,16.20
2023-03-10T22:00:59.823Z,16.40
2023-03-10T22:03:48.247Z,16.40
2023-03-10T22:06:36.752Z,16.50
2023-03-10T22:09:26.782Z,16.50
2023-03-10T22:12:15.903Z,16.60
2023-03-10T22:15:04.732Z,16.70
2023-03-10T22:17:55.348Z,16.70
2023-03-10T22:20:43.783Z,16.90
2023-03-10T22:23:32.257Z,16.90
2023-03-10T22:26:22.126Z,16.90
2023-03-10T22:29:10.626Z,16.70
2023-03-10T22:31:59.087Z,16.50
2023-03-10T22:34:47.528Z,16.60
2023-03-10T22:37:35.997Z,16.70
2023-03-10T22:40:25.505Z,16.80
2023-03-10T22:43:15.431Z,16.90
2023-03-10T22:46:09.501Z,17.10
2023-03-10T22:48:58.079Z,17.20
2023-03-10T22:51:46.568Z,17.10
2023-03-10T22:54:36.457Z,17.00
2023-03-10T22:57:24.883Z,17.00
2023-03-10T23:00:19.681Z,17.00
2023-03-10T23:03:11.477Z,17.10
2023-03-10T23:06:01.948Z,17.10
2023-03-10T23:08:50.392Z,17.00
2023-03-10T23:11:39.026Z,16.80
2023-03-10T23:14:27.671Z,16.90
2023-03-10T23:17:17.745Z,17.00
2023-03-10T23:20:07.597Z,16.90
2023-03-10T23:22:57.100Z,16.80
2023-03-10T23:25:47.449Z,16.90
2023-03-10T23:28:35.957Z,16.90
2023-03-10T23:31:24.515Z,17.00
2023-03-10T23:34:14.371Z,17.00
2023-03-10T23:37:02.994Z,17.00
2023-03-10T23:39:51.470Z,16.90
2023-03-10T23:42:40.138Z,16.90
2023-03-10T23:45:30.547Z,16.90
2023-03-10T23:48:19.914Z,16.90
2023-03-10T23:51:14.195Z,16.60
2023-03-10T23:54:02.650Z,16.50
2023-03-10T23:56:51.433Z,16.70
2023-03-10T23:59:41.529Z,16.80
